createdAt,value
2023-04-07T00:02:01.846Z,39.22
2023-04-07T00:04:28.781Z,39.21
2023-04-07T00:06:55.420Z,39.17
2023-04-07T00:09:22.069Z,39.37
2023-04-07T00:11:48.779Z,39.17
2023-04-07T00:14:15.375Z,39.24
2023-04-07T00:16:41.845Z,39.21
2023-04-07T00:19:08.445Z,39.25
2023-04-07T00:21:34.996Z,39.11
2023-04-07T00:24:01.549Z,38.98
2023-04-07T00:26:31.474Z,39.23
2023-04-07T00:28:59.163Z,39.27
2023-04-07T00:31:26.088Z,39.20
2023-04-07T00:33:52.920Z,39.34
2023-04-07T00:36:19.643Z,39.28
2023-04-07T00:38:46.393Z,39.20
2023-04-07T00:41:12.965Z,39.26
2023-04-07T00:43:39.429Z,39.30
2023-04-07T00:46:06.258Z,39.23
2023-04-07T00:48:33.087Z,39.27
2023-04-07T00:51:00.030Z,39.27
2023-04-07T00:53:26.549Z,39.33
2023-04-07T00:55:53.254Z,39.38
2023-04-07T00:58:19.789Z,39.23
2023-04-07T01:00:51.625Z,39.17
2023-04-07T01:03:31.275Z,39.30
2023-04-07T01:06:08.404Z,39.05
2023-04-07T01:08:57.297Z,39.24
2023-04-07T01:11:28.510Z,39.22
2023-04-07T01:13:55.606Z,39.23
2023-04-07T01:16:37.004Z,39.37
2023-04-07T01:19:38.843Z,39.38
2023-04-07T01:22:14.136Z,39.24
2023-04-07T01:24:55.989Z,39.31
2023-04-07T01:27:43.785Z,39.14
2023-04-07T01:30:12.816Z,39.39
2023-04-07T01:32:41.689Z,39.36
2023-04-07T01:35:13.100Z,39.19
2023-04-07T01:37:41.130Z,39.17
2023-04-07T01:40:09.019Z,39.14
2023-04-07T01:42:38.046Z,39.05
2023-04-07T01:45:06.631Z,39.20
2023-04-07T01:47:34.502Z,39.13
2023-04-07T01:50:04.676Z,39.24
2023-04-07T01:52:33.504Z,39.21
2023-04-07T01:55:00.402Z,39.22
2023-04-07T01:57:26.892Z,39.14
2023-04-07T01:59:53.972Z,39.23
2023-04-07T02:02:20.630Z,39.16
2023-04-07T02:04:47.156Z,39.19
2023-04-07T02:07:39.747Z,39.27
2023-04-07T02:10:10.588Z,39.22
2023-04-07T02:12:39.357Z,39.32
2023-04-07T02:15:09.288Z,39.13
2023-04-07T02:17:39.524Z,39.13
2023-04-07T02:20:11.864Z,39.16
2023-04-07T02:22:39.805Z,39.44
2023-04-07T02:25:23.911Z,39.28
2023-04-07T02:27:50.784Z,39.26
2023-04-07T02:30:17.732Z,39.41
2023-04-07T02:32:44.450Z,39.39
2023-04-07T02:35:12.111Z,39.19
2023-04-07T02:37:39.386Z,39.26
2023-04-07T02:40:10.005Z,39.35
2023-04-07T02:42:37.077Z,39.18
2023-04-07T02:45:04.664Z,39.41
2023-04-07T02:47:31.323Z,39.27
2023-04-07T02:49:57.835Z,39.34
2023-04-07T02:52:24.370Z,39.31
2023-04-07T02:54:51.200Z,39.42
2023-04-07T02:57:17.855Z,39.29
2023-04-07T02:59:44.442Z,39.24
2023-04-07T03:02:11.329Z,39.29
2023-04-07T03:04:38.098Z,39.36
2023-04-07T03:07:04.557Z,39.26
2023-04-07T03:09:31.426Z,39.26
2023-04-07T03:11:58.630Z,39.27
2023-04-07T03:14:25.239Z,39.43
2023-04-07T03:16:51.806Z,39.26
2023-04-07T03:19:18.323Z,39.26
2023-04-07T03:21:44.860Z,39.35
2023-04-07T03:24:11.495Z,39.19
2023-04-07T03:26:38.355Z,39.36
2023-04-07T03:29:04.858Z,39.27
2023-04-07T03:31:31.490Z,39.19
2023-04-07T03:33:58.134Z,39.30
2023-04-07T03:36:24.669Z,39.38
2023-04-07T03:38:51.261Z,39.49
2023-04-07T03:41:17.837Z,39.33
2023-04-07T03:43:44.685Z,39.45
2023-04-07T03:46:11.517Z,39.33
2023-04-07T03:48:38.024Z,39.15
2023-04-07T03:51:04.559Z,39.36
2023-04-07T03:53:31.113Z,39.38
2023-04-07T03:55:57.958Z,39.29
2023-04-07T03:58:24.521Z,39.46
2023-04-07T04:00:51.305Z,39.40
2023-04-07T04:03:17.908Z,39.39
2023-04-07T04:05:44.484Z,39.38
2023-04-07T04:08:10.986Z,39.43
2023-04-07T04:10:37.529Z,39.44
2023-04-07T04:13:06.736Z,39.50
2023-04-07T04:15:33.563Z,39.36
2023-04-07T04:18:00.145Z,39.54
2023-04-07T04:20:26.696Z,39.54
2023-04-07T04:22:53.297Z,39.47
2023-04-07T04:25:20.666Z,39.45
2023-04-07T04:27:47.171Z,39.46
2023-04-07T04:30:13.785Z,39.38
2023-04-07T04:32:40.846Z,39.48
2023-04-07T04:35:07.831Z,39.40
2023-04-07T04:37:34.709Z,39.46
2023-04-07T04:40:01.229Z,39.37
2023-04-07T04:42:28.111Z,39.28
2023-04-07T04:44:54.680Z,39.34
2023-04-07T04:47:21.504Z,39.28
2023-04-07T04:49:48.088Z,39.48
2023-04-07T04:52:14.633Z,39.35
2023-04-07T04:54:41.150Z,39.46
2023-04-07T04:57:07.648Z,39.40
2023-04-07T04:59:34.240Z,39.45
2023-04-07T05:02:01.186Z,39.49
2023-04-07T05:04:28.432Z,39.44
2023-04-07T05:06:55.346Z,39.38
2023-04-07T05:09:21.842Z,39.22
2023-04-07T05:11:48.611Z,39.44
2023-04-07T05:14:15.194Z,39.19
2023-04-07T05:16:41.946Z,39.27
2023-04-07T05:19:09.008Z,39.28
2023-04-07T05:21:35.480Z,39.40
2023-04-07T05:24:02.321Z,39.25
2023-04-07T05:26:28.854Z,39.39
2023-04-07T05:28:55.569Z,39.25
2023-04-07T05:31:22.186Z,39.26
2023-04-07T05:33:49.206Z,39.27
2023-04-07T05:36:16.164Z,39.43
2023-04-07T05:38:42.833Z,39.34
2023-04-07T05:41:09.360Z,39.46
2023-04-07T05:43:35.891Z,39.39
2023-04-07T05:46:02.511Z,39.54
2023-04-07T05:48:29.122Z,39.40
2023-04-07T05:50:55.689Z,39.47
2023-04-07T05:53:22.542Z,39.34
2023-04-07T05:55:49.023Z,39.42
2023-04-07T05:58:15.517Z,39.33
2023-04-07T06:00:41.990Z,39.45
2023-04-07T06:03:08.593Z,39.48
2023-04-07T06:05:35.610Z,39.40
2023-04-07T06:08:02.301Z,39.36
2023-04-07T06:10:28.828Z,39.24
2023-04-07T06:12:56.189Z,39.44
2023-04-07T06:15:23.902Z,39.43
2023-04-07T06:17:50.426Z,39.42
2023-04-07T06:20:16.907Z,39.45
2023-04-07T06:22:43.569Z,39.31
2023-04-07T06:25:10.258Z,39.36
2023-04-07T06:27:36.878Z,39.24
2023-04-07T06:30:03.933Z,39.40
2023-04-07T06:32:30.597Z,39.40
2023-04-07T06:34:57.079Z,39.29
2023-04-07T06:37:25.166Z,39.27
2023-04-07T06:39:52.069Z,39.39
2023-04-07T06:42:18.580Z,39.32
2023-04-07T06:44:45.242Z,39.23
2023-04-07T06:47:12.231Z,39.29
2023-04-07T06:49:38.759Z,39.42
2023-04-07T06:52:06.031Z,39.53
2023-04-07T06:54:32.544Z,39.67
2023-04-07T06:56:59.349Z,39.79
2023-04-07T06:59:26.134Z,39.58
2023-04-07T07:01:52.877Z,39.47
2023-04-07T07:04:19.567Z,39.49
2023-04-07T07:06:46.375Z,39.39
2023-04-07T07:09:13.218Z,39.27
2023-04-07T07:11:40.316Z,39.30
2023-04-07T07:14:06.875Z,39.44
2023-04-07T07:16:33.395Z,39.27
2023-04-07T07:19:00.154Z,39.30
2023-04-07T07:21:26.735Z,39.11
2023-04-07T07:23:53.257Z,38.98
2023-04-07T07:26:19.694Z,39.25
2023-04-07T07:28:47.098Z,39.21
2023-04-07T07:31:15.300Z,39.18
2023-04-07T07:33:43.960Z,39.11
2023-04-07T07:36:10.786Z,39.13
2023-04-07T07:38:37.893Z,39.08
2023-04-07T07:41:04.648Z,39.27
2023-04-07T07:43:31.239Z,39.17
2023-04-07T07:45:57.828Z,39.19
2023-04-07T07:48:24.557Z,39.23
2023-04-07T07:50:51.978Z,39.24
2023-04-07T07:53:18.671Z,39.25
2023-04-07T07:55:46.161Z,39.24
2023-04-07T07:58:12.697Z,39.32
2023-04-07T08:00:39.420Z,39.26
2023-04-07T08:03:06.169Z,39.08
2023-04-07T08:05:32.839Z,39.20
2023-04-07T08:08:00.096Z,39.17
2023-04-07T08:10:26.604Z,39.25
2023-04-07T08:12:53.410Z,39.27
2023-04-07T08:15:20.118Z,39.15
2023-04-07T08:17:46.642Z,39.04
2023-04-07T08:20:13.238Z,39.11
2023-04-07T08:22:39.759Z,39.17
2023-04-07T08:25:06.365Z,39.12
2023-04-07T08:27:32.997Z,39.06
2023-04-07T08:30:04.944Z,39.06
2023-04-07T08:32:43.740Z,39.29
2023-04-07T08:35:11.577Z,39.23
2023-04-07T08:37:39.798Z,38.95
2023-04-07T08:40:06.896Z,39.15
2023-04-07T08:42:34.742Z,39.31
2023-04-07T08:45:06.776Z,39.21
2023-04-07T08:47:35.293Z,39.34
2023-04-07T08:50:07.798Z,39.26
2023-04-07T08:52:42.480Z,39.30
2023-04-07T08:55:09.444Z,43.76
2023-04-07T08:57:37.229Z,45.33
2023-04-07T09:00:07.536Z,46.04
2023-04-07T09:02:35.895Z,46.85
2023-04-07T09:05:08.891Z,47.05
2023-04-07T09:07:37.398Z,46.21
2023-04-07T09:10:05.043Z,45.81
2023-04-07T09:12:32.642Z,45.53
2023-04-07T09:14:59.338Z,45.53
2023-04-07T09:17:27.339Z,46.12
2023-04-07T09:19:57.419Z,50.21
2023-04-07T09:22:36.918Z,51.00
2023-04-07T09:25:30.327Z,52.03
2023-04-07T09:27:58.355Z,52.84
2023-04-07T09:30:25.496Z,52.80
2023-04-07T09:32:52.220Z,52.57
2023-04-07T09:35:19.092Z,51.81
2023-04-07T09:38:02.046Z,50.84
2023-04-07T09:40:28.778Z,50.18
2023-04-07T09:42:55.491Z,49.39
2023-04-07T09:47:58.817Z,48.28
2023-04-07T09:50:49.387Z,47.53
2023-04-07T09:53:16.995Z,47.38
2023-04-07T09:55:44.045Z,47.11
2023-04-07T09:58:16.925Z,46.96
2023-04-07T10:00:44.308Z,46.49
2023-04-07T10:03:11.264Z,46.71
2023-04-07T10:05:39.074Z,46.39
2023-04-07T10:08:06.591Z,45.90
2023-04-07T10:10:34.182Z,46.17
2023-04-07T10:13:01.285Z,45.64
2023-04-07T10:15:27.832Z,45.32
2023-04-07T10:17:56.939Z,45.27
2023-04-07T10:20:24.223Z,44.93
2023-04-07T10:22:53.767Z,44.77
2023-04-07T10:25:24.500Z,44.54
2023-04-07T10:27:53.837Z,44.55
2023-04-07T10:30:29.867Z,44.30
2023-04-07T10:32:57.043Z,44.08
2023-04-07T10:35:24.370Z,43.90
2023-04-07T10:38:14.083Z,43.74
2023-04-07T10:40:42.847Z,43.59
2023-04-07T10:43:11.346Z,43.23
2023-04-07T10:45:50.084Z,43.09
2023-04-07T10:48:18.172Z,43.07
2023-04-07T10:50:46.260Z,43.04
2023-04-07T10:53:16.314Z,42.84
2023-04-07T10:55:46.781Z,42.80
2023-04-07T10:58:22.233Z,42.58
2023-04-07T11:01:00.678Z,42.52
2023-04-07T11:03:29.633Z,42.38
2023-04-07T11:06:11.267Z,42.19
2023-04-07T11:08:45.660Z,42.22
2023-04-07T11:11:20.884Z,41.99
2023-04-07T11:13:51.564Z,41.97
2023-04-07T11:16:19.880Z,41.95
2023-04-07T11:18:48.148Z,41.80
2023-04-07T11:21:19.337Z,41.89
2023-04-07T11:23:48.039Z,41.93
2023-04-07T11:26:16.471Z,41.81
2023-04-07T11:28:51.443Z,41.97
2023-04-07T11:31:25.460Z,41.74
2023-04-07T11:33:54.790Z,41.68
2023-04-07T11:36:59.396Z,41.95
2023-04-07T11:39:33.572Z,41.68
2023-04-07T11:42:00.046Z,41.79
2023-04-07T11:44:26.790Z,41.75
2023-04-07T11:46:58.321Z,41.61
2023-04-07T11:49:28.157Z,41.63
2023-04-07T11:52:06.744Z,41.67
2023-04-07T11:54:43.970Z,41.57
2023-04-07T11:57:12.996Z,41.47
2023-04-07T11:59:42.434Z,41.49
2023-04-07T12:02:09.623Z,41.28
2023-04-07T12:04:37.867Z,41.38
2023-04-07T12:07:09.507Z,41.27
2023-04-07T12:09:36.390Z,41.45
2023-04-07T12:12:06.375Z,41.34
2023-04-07T12:14:33.008Z,41.47
2023-04-07T12:17:01.599Z,41.46
2023-04-07T12:19:29.165Z,41.34
2023-04-07T12:21:57.058Z,41.52
2023-04-07T12:24:23.919Z,41.28
2023-04-07T12:26:50.680Z,41.26
2023-04-07T12:29:19.867Z,41.21
2023-04-07T12:31:47.529Z,41.24
2023-04-07T12:34:15.674Z,41.11
2023-04-07T12:36:42.240Z,41.08
2023-04-07T12:39:08.792Z,40.85
2023-04-07T12:41:35.307Z,40.78
2023-04-07T12:44:02.018Z,40.76
2023-04-07T12:46:28.611Z,40.68
2023-04-07T12:48:55.507Z,40.71
2023-04-07T12:51:22.233Z,40.60
2023-04-07T12:53:49.036Z,40.73
2023-04-07T12:56:15.932Z,40.71
2023-04-07T12:58:42.915Z,40.68
2023-04-07T13:01:09.859Z,40.67
2023-04-07T13:03:37.207Z,40.60
2023-04-07T13:06:04.603Z,40.54
2023-04-07T13:08:31.446Z,40.36
2023-04-07T13:10:57.944Z,40.46
2023-04-07T13:13:24.749Z,40.42
2023-04-07T13:15:51.637Z,40.47
2023-04-07T13:18:18.188Z,40.36
2023-04-07T13:20:54.354Z,40.36
2023-04-07T13:23:42.151Z,40.20
2023-04-07T13:26:10.066Z,40.55
2023-04-07T13:28:36.604Z,40.57
2023-04-07T13:31:03.305Z,40.68
2023-04-07T13:33:29.868Z,40.58
2023-04-07T13:35:56.489Z,40.38
2023-04-07T13:38:23.000Z,40.65
2023-04-07T13:40:49.741Z,40.61
2023-04-07T13:43:18.800Z,40.50
2023-04-07T13:45:45.588Z,40.61
2023-04-07T13:48:12.186Z,40.63
2023-04-07T13:50:38.969Z,40.74
2023-04-07T13:53:05.562Z,40.65
2023-04-07T13:55:32.174Z,40.55
2023-04-07T13:57:58.712Z,40.57
2023-04-07T14:00:25.498Z,40.59
2023-04-07T14:02:52.189Z,40.59
2023-04-07T14:05:18.813Z,40.53
2023-04-07T14:07:45.368Z,40.42
2023-04-07T14:10:11.977Z,40.37
2023-04-07T14:12:38.476Z,40.26
2023-04-07T14:15:05.547Z,40.13
2023-04-07T14:17:32.133Z,40.15
2023-04-07T14:19:58.655Z,40.27
2023-04-07T14:22:25.199Z,40.21
2023-04-07T14:24:52.115Z,40.33
2023-04-07T14:27:21.160Z,40.30
2023-04-07T14:29:48.555Z,40.30
2023-04-07T14:32:16.209Z,40.34
2023-04-07T14:34:42.788Z,40.26
2023-04-07T14:37:09.348Z,40.30
2023-04-07T14:39:35.862Z,40.22
2023-04-07T14:42:02.740Z,39.73
2023-04-07T14:44:29.210Z,39.57
2023-04-07T14:46:56.219Z,39.37
2023-04-07T14:49:22.828Z,39.31
2023-04-07T14:51:49.406Z,39.31
2023-04-07T14:54:15.922Z,39.37
2023-04-07T14:56:42.441Z,39.30
2023-04-07T14:59:08.942Z,39.17
2023-04-07T15:01:35.636Z,39.33
2023-04-07T15:04:02.246Z,39.24
2023-04-07T15:06:28.884Z,39.49
2023-04-07T15:08:55.513Z,39.21
2023-04-07T15:11:22.020Z,39.19
2023-04-07T15:13:49.085Z,39.21
2023-04-07T15:16:16.112Z,39.10
2023-04-07T15:18:45.165Z,38.99
2023-04-07T15:21:12.427Z,39.09
2023-04-07T15:23:40.460Z,38.93
2023-04-07T15:26:07.943Z,38.93
2023-04-07T15:28:34.605Z,38.88
2023-04-07T15:31:01.569Z,38.93
2023-04-07T15:33:28.154Z,38.81
2023-04-07T15:35:54.927Z,38.73
2023-04-07T15:38:21.499Z,38.48
2023-04-07T15:40:48.015Z,38.50
2023-04-07T15:43:14.634Z,38.59
2023-04-07T15:45:42.946Z,38.60
2023-04-07T15:48:13.072Z,38.74
2023-04-07T15:50:39.678Z,38.61
2023-04-07T15:53:07.008Z,38.65
2023-04-07T15:55:34.980Z,38.63
2023-04-07T15:58:02.188Z,38.77
2023-04-07T16:00:30.632Z,38.54
2023-04-07T16:02:57.373Z,38.29
2023-04-07T16:05:24.086Z,38.50
2023-04-07T16:07:50.616Z,38.23
2023-04-07T16:10:19.917Z,38.08
2023-04-07T16:12:47.292Z,38.23
2023-04-07T16:15:18.475Z,38.22
2023-04-07T16:17:49.694Z,38.14
2023-04-07T16:20:16.405Z,38.30
2023-04-07T16:22:45.596Z,38.36
2023-04-07T16:25:12.973Z,38.53
2023-04-07T16:27:39.636Z,38.75
2023-04-07T16:30:06.912Z,38.93
2023-04-07T16:32:34.610Z,39.08
2023-04-07T16:35:01.283Z,39.15
2023-04-07T16:37:27.881Z,39.37
2023-04-07T16:39:56.398Z,39.34
2023-04-07T16:42:25.839Z,39.43
2023-04-07T16:44:52.388Z,39.78
2023-04-07T16:47:18.891Z,39.79
2023-04-07T16:49:45.428Z,39.87
2023-04-07T16:52:12.102Z,39.76
2023-04-07T16:54:38.932Z,39.94
2023-04-07T16:57:05.533Z,39.83
2023-04-07T16:59:32.404Z,39.84
2023-04-07T17:01:59.129Z,39.96
2023-04-07T17:04:25.899Z,40.04
2023-04-07T17:06:52.570Z,40.09
2023-04-07T17:09:19.909Z,40.06
2023-04-07T17:11:46.412Z,39.92
2023-04-07T17:14:12.975Z,40.13
2023-04-07T17:16:39.541Z,40.02
2023-04-07T17:19:06.319Z,40.03
2023-04-07T17:21:32.897Z,40.18
2023-04-07T17:23:59.407Z,40.01
2023-04-07T17:26:26.135Z,40.18
2023-04-07T17:28:52.741Z,40.06
2023-04-07T17:31:19.321Z,40.31
2023-04-07T17:33:47.678Z,40.34
2023-04-07T17:36:14.577Z,40.40
2023-04-07T17:38:41.304Z,40.53
2023-04-07T17:41:07.918Z,40.49
2023-04-07T17:43:34.460Z,40.57
2023-04-07T17:46:01.042Z,40.73
2023-04-07T17:48:27.806Z,40.59
2023-04-07T17:50:54.345Z,40.76
2023-04-07T17:53:21.152Z,40.70
2023-04-07T17:55:47.675Z,40.72
2023-04-07T17:58:14.629Z,40.67
2023-04-07T18:00:41.361Z,40.57
2023-04-07T18:03:08.249Z,40.63
2023-04-07T18:05:36.609Z,40.78
2023-04-07T18:08:03.141Z,40.69
2023-04-07T18:10:29.744Z,40.76
2023-04-07T18:12:56.312Z,40.65
2023-04-07T18:15:22.845Z,40.70
2023-04-07T18:17:53.062Z,40.69
2023-04-07T18:20:20.026Z,40.79
2023-04-07T18:22:47.387Z,40.82
2023-04-07T18:25:14.120Z,40.86
2023-04-07T18:27:40.630Z,41.00
2023-04-07T18:30:07.960Z,40.99
2023-04-07T18:32:34.597Z,40.89
2023-04-07T18:35:01.337Z,40.85
2023-04-07T18:37:29.553Z,40.93
2023-04-07T18:39:56.268Z,40.95
2023-04-07T18:42:22.905Z,40.96
2023-04-07T18:44:49.442Z,41.00
2023-04-07T18:47:16.115Z,41.03
2023-04-07T18:49:42.660Z,41.00
2023-04-07T18:52:09.640Z,40.93
2023-04-07T18:54:36.598Z,40.97
2023-04-07T18:57:03.955Z,40.92
2023-04-07T18:59:31.000Z,40.81
2023-04-07T19:01:57.663Z,40.88
2023-04-07T19:04:24.974Z,40.72
2023-04-07T19:06:52.091Z,40.76
2023-04-07T19:09:18.619Z,40.88
2023-04-07T19:11:45.441Z,40.86
2023-04-07T19:14:12.798Z,40.72
2023-04-07T19:16:40.043Z,40.93
2023-04-07T19:19:06.526Z,40.79
2023-04-07T19:21:33.230Z,41.00
2023-04-07T19:23:59.960Z,40.90
2023-04-07T19:26:27.860Z,40.88
2023-04-07T19:28:54.406Z,40.90
2023-04-07T19:31:21.120Z,40.96
2023-04-07T19:33:48.853Z,40.92
2023-04-07T19:36:15.885Z,40.88
2023-04-07T19:38:42.401Z,40.83
2023-04-07T19:41:08.897Z,40.77
2023-04-07T19:43:35.460Z,40.83
2023-04-07T19:46:03.603Z,40.75
2023-04-07T19:48:30.956Z,40.90
2023-04-07T19:50:57.651Z,40.74
2023-04-07T19:53:26.103Z,40.87
2023-04-07T19:55:52.660Z,40.68
2023-04-07T19:58:21.664Z,40.82
2023-04-07T20:00:51.722Z,40.72
2023-04-07T20:03:20.430Z,40.61
2023-04-07T20:05:47.184Z,40.68
2023-04-07T20:08:13.774Z,40.87
2023-04-07T20:10:40.347Z,40.80
2023-04-07T20:13:06.975Z,40.63
2023-04-07T20:15:33.453Z,40.74
2023-04-07T20:18:00.220Z,40.59
2023-04-07T20:20:26.989Z,40.60
2023-04-07T20:22:53.517Z,40.46
2023-04-07T20:25:20.343Z,40.08
2023-04-07T20:27:49.351Z,40.24
2023-04-07T20:30:16.468Z,40.04
2023-04-07T20:32:44.913Z,40.18
2023-04-07T20:35:12.077Z,40.08
2023-04-07T20:37:38.783Z,40.21
2023-04-07T20:40:06.644Z,40.07
2023-04-07T20:42:33.286Z,40.19
2023-04-07T20:45:03.807Z,40.04
2023-04-07T20:47:31.650Z,40.16
2023-04-07T20:49:58.764Z,40.11
2023-04-07T20:52:27.339Z,40.22
2023-04-07T20:54:53.963Z,40.00
2023-04-07T20:57:20.482Z,39.98
2023-04-07T20:59:47.179Z,40.07
2023-04-07T21:02:13.876Z,39.98
2023-04-07T21:04:40.622Z,40.14
2023-04-07T21:07:07.197Z,40.13
2023-04-07T21:09:33.705Z,40.02
2023-04-07T21:12:03.468Z,39.94
2023-04-07T21:14:31.816Z,39.95
2023-04-07T21:16:59.055Z,40.06
2023-04-07T21:19:26.082Z,39.95
2023-04-07T21:21:52.589Z,39.91
2023-04-07T21:24:19.319Z,39.84
2023-04-07T21:26:45.906Z,40.04
2023-04-07T21:29:12.559Z,39.87
2023-04-07T21:31:39.267Z,39.87
2023-04-07T21:34:06.045Z,39.96
2023-04-07T21:36:32.831Z,39.79
2023-04-07T21:38:59.278Z,39.92
2023-04-07T21:41:25.980Z,39.88
2023-04-07T21:43:52.506Z,39.95
2023-04-07T21:46:19.100Z,39.99
2023-04-07T21:48:45.872Z,39.75
2023-04-07T21:51:12.572Z,39.80
2023-04-07T21:53:39.248Z,39.79
2023-04-07T21:56:08.384Z,39.67
2023-04-07T21:58:35.765Z,39.66
2023-04-07T22:01:02.266Z,39.68
2023-04-07T22:03:30.040Z,39.75
2023-04-07T22:06:00.210Z,39.72
2023-04-07T22:08:27.289Z,39.73
2023-04-07T22:10:53.872Z,39.75
2023-04-07T22:13:20.408Z,39.83
2023-04-07T22:15:46.905Z,39.62
2023-04-07T22:18:13.824Z,39.71
2023-04-07T22:20:40.569Z,39.67
2023-04-07T22:23:07.131Z,39.64
2023-04-07T22:25:33.661Z,39.67
2023-04-07T22:28:00.357Z,39.68
2023-04-07T22:30:26.917Z,39.65
2023-04-07T22:32:53.442Z,39.59
2023-04-07T22:35:20.225Z,39.52
2023-04-07T22:37:46.847Z,39.64
2023-04-07T22:40:13.389Z,39.54
2023-04-07T22:42:40.159Z,39.64
2023-04-07T22:45:07.326Z,39.59
2023-04-07T22:47:33.858Z,39.62
2023-04-07T22:50:00.553Z,39.66
2023-04-07T22:52:27.058Z,39.44
2023-04-07T22:54:53.618Z,39.59
2023-04-07T22:57:20.488Z,39.54
2023-04-07T22:59:46.938Z,39.34
2023-04-07T23:02:13.628Z,39.29
2023-04-07T23:04:40.204Z,39.47
2023-04-07T23:07:06.791Z,39.58
2023-04-07T23:09:33.412Z,39.39
2023-04-07T23:11:59.926Z,39.54
2023-04-07T23:14:26.383Z,39.30
2023-04-07T23:16:54.583Z,39.46
2023-04-07T23:19:21.352Z,39.36
2023-04-07T23:21:47.833Z,39.47
2023-04-07T23:24:14.561Z,39.41
2023-04-07T23:26:41.084Z,39.52
2023-04-07T23:29:08.091Z,39.44
2023-04-07T23:31:34.865Z,39.39
2023-04-07T23:34:01.418Z,39.31
2023-04-07T23:36:28.027Z,39.43
2023-04-07T23:38:56.052Z,39.48
2023-04-07T23:41:23.027Z,39.38
2023-04-07T23:43:49.643Z,39.42
2023-04-07T23:46:16.358Z,39.41
2023-04-07T23:48:42.846Z,39.53
2023-04-07T23:51:09.555Z,39.34
2023-04-07T23:53:36.320Z,39.19
2023-04-07T23:56:02.843Z,39.22
2023-04-07T23:58:29.365Z,39.19
